| << 30.4. | 2.5. >> |
|
Dirección del viento en Grado |
Velocidad del viento en km/h |
Ráfagas de viento en m/s |
Temperatura en °C |
Humedad rel. en % |
Windchill en °C |
Presión atm. en hPa |
Punto de rocío en °C |
Precipitación en mm |
Radiación global en W/m² |
|
|---|---|---|---|---|---|---|---|---|---|---|
| ▲ Máximos | 15,0 | 7,9 | 21,4 | 93,8 | 22,43 | 15,9 | 1058 | |||
| Ø Promedio | 287,5 | 7,4 | 3,6 | 16,1 | 75,6 | 16,43 | 11,7 | 298 | ||
| ▼ Mínimos | 0,9 | 1,0 | 11,7 | 56,0 | 11,09 | 5,2 | 7 | |||
| ∑ Total |
| Tiempo (UTC) | Dirección del viento en Grado | Velocidad del viento en km/h | Ráfagas de viento en m/s | Temperatura en °C | Humedad rel. en % | Windchill en °C | Presión atm. en hPa | Punto de rocío en °C | Precipitación en mm | Radiación global en W/m² |
|---|---|---|---|---|---|---|---|---|---|---|
| 00:00 | 174,1 | 3,7 | 1,5 | 14,3 | 62,2 | 15,01 | --- | 7,3 | --- | 7 |
| 00:10 | 161,1 | 4,3 | 1,7 | 14,5 | 62,1 | 15,08 | --- | 7,5 | --- | 7 |
| 00:20 | 171,5 | 4,8 | 2,6 | 14,3 | 62,2 | 14,65 | --- | 7,3 | --- | 8 |
| 00:30 | 184,2 | 4,9 | 2,4 | 13,7 | 61,2 | 13,99 | --- | 6,5 | --- | 8 |
| 00:40 | 210,8 | 2,2 | 1,5 | 13,4 | 59,0 | 15,32 | --- | 5,7 | --- | 8 |
| 00:50 | 205,8 | 3,9 | 1,7 | 13,4 | 56,9 | 13,98 | --- | 5,2 | --- | 7 |
| 01:00 | 170,4 | 4,0 | 2,2 | 13,4 | 58,1 | 13,96 | --- | 5,5 | --- | 8 |
| 01:10 | 194,5 | 4,5 | 1,7 | 13,1 | 63,3 | 13,44 | --- | 6,4 | --- | 7 |
| 01:20 | 211,4 | 5,6 | 2,2 | 13,5 | 63,6 | 13,59 | --- | 6,8 | --- | 7 |
| 01:30 | 216,6 | 4,3 | 1,7 | 13,7 | 64,4 | 14,12 | --- | 7,2 | --- | 7 |
| 01:40 | 211,9 | 4,9 | 1,7 | 14,0 | 64,1 | 14,27 | --- | 7,4 | --- | 7 |
| 01:50 | 213,3 | 4,8 | 1,8 | 13,8 | 62,9 | 14,17 | --- | 7,0 | --- | 7 |
| 02:00 | 224,5 | 4,2 | 1,6 | 13,9 | 61,2 | 14,41 | --- | 6,7 | --- | 7 |
| 02:10 | 232,7 | 2,7 | 1,3 | 13,8 | 57,8 | 16,06 | --- | 5,9 | --- | 7 |
| 02:20 | 170,8 | 2,4 | 1,4 | 13,7 | 56,0 | 16,77 | --- | 5,3 | --- | 7 |
| 02:30 | 239,4 | 4,2 | 1,6 | 13,6 | 58,4 | 14,06 | --- | 5,8 | --- | 7 |
| 02:40 | 262,1 | 4,7 | 1,6 | 13,3 | 62,0 | 13,63 | --- | 6,3 | --- | 7 |
| 02:50 | 263,5 | 6,3 | 2,8 | 13,2 | 63,5 | 13,08 | --- | 6,5 | --- | 7 |
| 03:00 | 263,4 | 7,7 | 3,0 | 13,2 | 62,9 | 12,80 | --- | 6,4 | --- | 7 |
| 03:10 | 258,8 | 8,2 | 3,1 | 13,3 | 59,9 | 12,86 | --- | 5,8 | --- | 7 |
| 03:20 | 253,2 | 8,0 | 3,4 | 13,7 | 61,5 | 13,34 | --- | 6,6 | --- | 7 |
| 03:30 | 254,6 | 7,2 | 3,2 | 13,6 | 64,4 | 13,38 | --- | 7,1 | --- | 7 |
| 03:40 | 249,7 | 7,4 | 3,3 | 13,7 | 65,8 | 13,44 | --- | 7,5 | --- | 7 |
| 03:50 | 254,9 | 7,3 | 2,6 | 14,0 | 65,9 | 13,84 | --- | 7,8 | --- | 7 |
| 04:00 | 256,0 | 5,6 | 2,5 | 13,9 | 67,1 | 14,03 | --- | 7,9 | --- | 7 |
| 04:10 | 247,6 | 4,8 | 2,1 | 13,6 | 68,3 | 13,97 | --- | 8,0 | --- | 7 |
| 04:20 | 117,0 | 2,0 | 1,2 | 13,3 | 68,9 | 15,37 | --- | 7,8 | --- | 7 |
| 04:30 | 179,1 | 2,5 | 1,5 | 13,3 | 69,6 | 14,95 | --- | 7,9 | --- | 7 |
| 04:40 | 191,6 | 3,9 | 1,4 | 13,7 | 69,9 | 14,22 | --- | 8,3 | --- | 7 |
| 04:50 | 191,0 | 4,4 | 1,5 | 14,0 | 68,9 | 14,48 | --- | 8,5 | --- | 7 |
| 05:00 | 204,6 | 4,1 | 1,6 | 13,5 | 71,1 | 14,03 | --- | 8,5 | --- | 7 |
| 05:10 | 196,1 | 3,3 | 1,6 | 13,6 | 71,7 | 14,35 | --- | 8,6 | --- | 7 |
| 05:20 | 211,6 | 4,4 | 1,7 | 13,4 | 72,2 | 13,80 | --- | 8,5 | --- | 7 |
| 05:30 | 212,4 | 5,2 | 2,0 | 13,0 | 74,5 | 13,17 | --- | 8,6 | --- | 7 |
| 05:40 | 224,0 | 5,0 | 1,9 | 12,6 | 76,2 | 12,74 | --- | 8,6 | --- | 7 |
| 05:50 | 255,9 | 5,9 | 2,8 | 12,6 | 78,1 | 12,55 | --- | 8,9 | --- | 7 |
| 06:00 | 263,1 | 7,7 | 3,6 | 12,3 | 77,5 | 11,78 | --- | 8,5 | --- | 7 |
| 06:10 | 274,3 | 7,0 | 2,7 | 12,2 | 76,8 | 11,78 | --- | 8,2 | --- | 8 |
| 06:20 | 276,6 | 7,4 | 3,2 | 12,0 | 78,2 | 11,49 | --- | 8,3 | --- | 10 |
| 06:30 | 282,7 | 6,5 | 2,6 | 11,7 | 82,2 | 11,36 | --- | 8,8 | --- | 14 |
| 06:40 | 280,5 | 7,5 | 3,1 | 11,7 | 86,9 | 11,09 | --- | 9,5 | --- | 18 |
| 06:50 | 279,3 | 7,8 | 3,0 | 11,8 | 89,6 | 11,22 | --- | 10,1 | --- | 50 |
| 07:00 | 279,2 | 6,1 | 2,5 | 11,7 | 89,2 | 11,43 | --- | 9,9 | --- | 136 |
| 07:10 | 290,4 | 3,2 | 1,8 | 12,1 | 86,9 | 12,82 | --- | 9,9 | --- | 169 |
| 07:20 | 116,1 | 0,9 | 1,0 | 14,3 | 86,5 | 19,67 | --- | 12,1 | --- | 210 |
| 07:30 | 112,6 | 5,0 | 2,5 | 15,9 | 79,0 | 16,47 | --- | 12,3 | --- | 253 |
| 07:40 | 108,4 | 6,8 | 3,4 | 16,3 | 76,4 | 16,57 | --- | 12,1 | --- | 296 |
| 07:50 | 115,9 | 9,5 | 5,6 | 16,3 | 75,7 | 16,19 | --- | 12,0 | --- | 339 |
| Tiempo (UTC) | Dirección del viento en Grado | Velocidad del viento en km/h | Ráfagas de viento en m/s | Temperatura en °C | Humedad rel. en % | Windchill en °C | Presión atm. en hPa | Punto de rocío en °C | Precipitación en mm | Radiación global en W/m² |
|---|---|---|---|---|---|---|---|---|---|---|
| 08:00 | 122,0 | 11,6 | 5,3 | 16,4 | 74,9 | 16,14 | --- | 12,0 | --- | 381 |
| 08:10 | 115,0 | 12,9 | 5,7 | 16,7 | 75,5 | 16,33 | --- | 12,4 | --- | 422 |
| 08:20 | 114,6 | 15,0 | 7,7 | 16,6 | 76,5 | 16,11 | --- | 12,5 | --- | 465 |
| 08:30 | 110,8 | 14,5 | 7,6 | 16,6 | 79,0 | 16,09 | --- | 12,9 | --- | 505 |
| 08:40 | 99,0 | 14,8 | 7,9 | 16,8 | 78,6 | 16,33 | --- | 13,1 | --- | 546 |
| 08:50 | 100,4 | 11,5 | 6,7 | 17,2 | 79,1 | 17,13 | --- | 13,6 | --- | 583 |
| 09:00 | 97,5 | 12,5 | 6,4 | 17,5 | 77,5 | 17,35 | --- | 13,5 | --- | 626 |
| 09:10 | 118,3 | 13,2 | 6,7 | 17,2 | 78,4 | 16,98 | --- | 13,4 | --- | 665 |
| 09:20 | 147,9 | 6,9 | 4,4 | 17,7 | 77,9 | 18,20 | --- | 13,8 | --- | 691 |
| 09:30 | 299,8 | 8,7 | 5,2 | 18,0 | 69,9 | 18,32 | --- | 12,5 | --- | 734 |
| 09:40 | 300,0 | 12,1 | 5,8 | 18,1 | 67,6 | 18,08 | --- | 12,1 | --- | 763 |
| 09:50 | 284,0 | 14,9 | 7,3 | 17,8 | 70,1 | 17,54 | --- | 12,3 | --- | 796 |
| 10:00 | 280,4 | 13,9 | 6,8 | 17,3 | 76,4 | 17,07 | --- | 13,2 | --- | 840 |
| 10:10 | 288,8 | 14,1 | 7,3 | 17,0 | 79,6 | 16,61 | --- | 13,4 | --- | 744 |
| 10:20 | 283,3 | 12,1 | 6,9 | 16,9 | 80,4 | 16,70 | --- | 13,5 | --- | 866 |
| 10:30 | 290,9 | 11,3 | 6,0 | 17,1 | 80,6 | 17,04 | --- | 13,8 | --- | 882 |
| 10:40 | 312,2 | 9,9 | 5,1 | 17,3 | 80,2 | 17,41 | --- | 13,9 | --- | 929 |
| 10:50 | 324,7 | 8,8 | 4,2 | 17,4 | 78,9 | 17,62 | --- | 13,7 | --- | 941 |
| 11:00 | 313,1 | 8,6 | 4,7 | 17,8 | 77,6 | 18,12 | --- | 13,8 | --- | 657 |
| 11:10 | 338,0 | 7,7 | 4,0 | 18,0 | 78,8 | 18,41 | --- | 14,2 | --- | 559 |
| 11:20 | 335,7 | 5,3 | 3,2 | 18,6 | 76,7 | 19,49 | --- | 14,4 | --- | 945 |
| 11:30 | 356,9 | 6,4 | 3,6 | 19,4 | 74,4 | 20,22 | --- | 14,7 | --- | 501 |
| 11:40 | 11,1 | 5,8 | 3,7 | 19,6 | 74,0 | 20,50 | --- | 14,8 | --- | 526 |
| 11:50 | 39,4 | 4,9 | 2,6 | 20,0 | 73,5 | 21,16 | --- | 15,2 | --- | 808 |
| 12:00 | 15,3 | 5,2 | 3,7 | 20,5 | 71,1 | 21,67 | --- | 15,2 | --- | 937 |
| 12:10 | 43,3 | 4,5 | 2,7 | 20,8 | 69,4 | 22,14 | --- | 15,1 | --- | 596 |
| 12:20 | 5,2 | 6,0 | 3,4 | 21,0 | 70,5 | 22,13 | --- | 15,5 | --- | 812 |
| 12:30 | 331,0 | 5,3 | 3,0 | 20,8 | 71,9 | 22,03 | --- | 15,6 | --- | 1009 |
| 12:40 | 300,9 | 7,3 | 3,5 | 20,0 | 74,7 | 20,78 | --- | 15,4 | --- | 612 |
| 12:50 | 339,0 | 6,0 | 3,2 | 19,7 | 77,3 | 20,59 | --- | 15,6 | --- | 464 |
| 13:00 | 9,4 | 5,2 | 2,7 | 20,0 | 76,1 | 21,12 | --- | 15,7 | --- | 471 |
| 13:10 | 345,8 | 7,6 | 3,9 | 19,7 | 76,1 | 20,43 | --- | 15,4 | --- | 414 |
| 13:20 | 0,3 | 5,7 | 3,0 | 19,1 | 79,6 | 20,02 | --- | 15,5 | --- | 435 |
| 13:30 | 345,6 | 6,0 | 3,1 | 19,7 | 78,7 | 20,67 | --- | 15,9 | --- | 834 |
| 13:40 | 312,9 | 7,8 | 3,4 | 19,1 | 78,6 | 19,73 | --- | 15,3 | --- | 404 |
| 13:50 | 302,9 | 8,2 | 4,0 | 18,4 | 80,9 | 18,89 | --- | 15,1 | --- | 438 |
| 14:00 | 317,1 | 8,6 | 3,8 | 17,8 | 81,7 | 18,14 | --- | 14,6 | --- | 408 |
| 14:10 | 300,7 | 8,5 | 4,0 | 17,6 | 82,5 | 17,90 | --- | 14,6 | --- | 442 |
| 14:20 | 302,3 | 7,9 | 4,2 | 18,0 | 80,2 | 18,43 | --- | 14,5 | --- | 735 |
| 14:30 | 303,3 | 8,7 | 4,9 | 18,8 | 77,1 | 19,27 | --- | 14,7 | --- | 911 |
| 14:40 | 311,3 | 8,7 | 4,2 | 19,4 | 74,9 | 19,97 | --- | 14,9 | --- | 749 |
| 14:50 | 326,5 | 6,7 | 3,9 | 19,5 | 73,4 | 20,35 | --- | 14,7 | --- | 736 |
| 15:00 | 334,7 | 7,7 | 3,8 | 20,1 | 71,4 | 20,97 | --- | 14,9 | --- | 1058 |
| 15:10 | 329,8 | 8,7 | 4,4 | 20,7 | 68,9 | 21,52 | --- | 14,9 | --- | 879 |
| 15:20 | 324,9 | 8,8 | 3,9 | 20,3 | 69,1 | 21,07 | --- | 14,6 | --- | 589 |
| 15:30 | 6,5 | 6,9 | 3,6 | 20,0 | 69,8 | 20,92 | --- | 14,4 | --- | 563 |
| 15:40 | 336,6 | 7,2 | 3,5 | 20,3 | 68,9 | 21,17 | --- | 14,5 | --- | 854 |
| 15:50 | 2,5 | 7,5 | 3,8 | 21,1 | 66,5 | 22,06 | --- | 14,7 | --- | 874 |
| Tiempo (UTC) | Dirección del viento en Grado | Velocidad del viento en km/h | Ráfagas de viento en m/s | Temperatura en °C | Humedad rel. en % | Windchill en °C | Presión atm. en hPa | Punto de rocío en °C | Precipitación en mm | Radiación global en W/m² |
|---|---|---|---|---|---|---|---|---|---|---|
| 16:00 | 343,8 | 6,6 | 3,6 | 21,2 | 64,6 | 22,37 | --- | 14,4 | --- | 777 |
| 16:10 | 355,0 | 7,0 | 3,4 | 21,3 | 64,3 | 22,43 | --- | 14,4 | --- | 792 |
| 16:20 | 338,7 | 8,4 | 4,3 | 21,4 | 63,4 | 22,40 | --- | 14,3 | --- | 805 |
| 16:30 | 327,3 | 7,7 | 3,8 | 21,1 | 64,5 | 22,06 | --- | 14,2 | --- | 843 |
| 16:40 | 323,0 | 7,6 | 4,2 | 20,8 | 63,5 | 21,72 | --- | 13,7 | --- | 584 |
| 16:50 | 312,4 | 9,1 | 4,7 | 20,1 | 66,0 | 20,78 | --- | 13,7 | --- | 592 |
| 17:00 | 306,5 | 7,6 | 3,4 | 20,0 | 67,0 | 20,81 | --- | 13,8 | --- | 562 |
| 17:10 | 322,1 | 9,0 | 4,7 | 19,9 | 66,6 | 20,58 | --- | 13,6 | --- | 498 |
| 17:20 | 298,7 | 7,6 | 4,0 | 19,7 | 67,4 | 20,41 | --- | 13,6 | --- | 453 |
| 17:30 | 319,3 | 8,0 | 3,6 | 19,6 | 67,3 | 20,30 | --- | 13,5 | --- | 415 |
| 17:40 | 294,7 | 7,6 | 4,3 | 19,2 | 68,6 | 19,87 | --- | 13,4 | --- | 371 |
| 17:50 | 307,9 | 8,5 | 3,6 | 19,2 | 68,3 | 19,73 | --- | 13,3 | --- | 330 |
| 18:00 | 313,7 | 9,2 | 4,1 | 18,8 | 69,2 | 19,20 | --- | 13,1 | --- | 291 |
| 18:10 | 312,9 | 8,7 | 3,7 | 18,5 | 70,6 | 18,90 | --- | 13,1 | --- | 252 |
| 18:20 | 303,7 | 10,6 | 5,1 | 18,1 | 72,0 | 18,21 | --- | 13,0 | --- | 217 |
| 18:30 | 297,6 | 9,7 | 4,9 | 17,7 | 73,0 | 17,91 | --- | 12,9 | --- | 176 |
| 18:40 | 301,7 | 10,7 | 5,0 | 17,4 | 75,2 | 17,35 | --- | 12,9 | --- | 144 |
| 18:50 | 300,3 | 10,5 | 4,9 | 16,9 | 77,6 | 16,88 | --- | 13,0 | --- | 111 |
| 19:00 | 307,2 | 9,4 | 4,4 | 16,6 | 78,7 | 16,58 | --- | 12,9 | --- | 79 |
| 19:10 | 310,0 | 9,9 | 4,3 | 16,1 | 80,5 | 15,91 | --- | 12,7 | --- | 50 |
| 19:20 | 302,7 | 7,2 | 3,7 | 15,6 | 82,3 | 15,67 | --- | 12,5 | --- | 24 |
| 19:30 | 291,5 | 7,7 | 3,5 | 15,1 | 84,4 | 15,03 | --- | 12,4 | --- | 13 |
| 19:40 | 296,5 | 7,6 | 3,7 | 14,7 | 86,4 | 14,57 | --- | 12,4 | --- | 9 |
| 19:50 | 293,1 | 7,3 | 3,7 | 14,3 | 87,9 | 14,22 | --- | 12,3 | --- | 8 |
| 20:00 | 290,6 | 7,7 | 3,5 | 14,2 | 89,1 | 13,97 | --- | 12,3 | --- | 7 |
| 20:10 | 288,4 | 9,3 | 4,6 | 14,2 | 90,0 | 13,76 | --- | 12,5 | --- | 7 |
| 20:20 | 295,2 | 7,9 | 4,1 | 14,2 | 90,4 | 13,98 | --- | 12,6 | --- | 7 |
| 20:30 | 294,9 | 6,7 | 3,4 | 14,2 | 90,6 | 14,16 | --- | 12,6 | --- | 7 |
| 20:40 | 289,7 | 6,7 | 3,4 | 14,1 | 90,6 | 14,00 | --- | 12,4 | --- | 7 |
| 20:50 | 287,3 | 7,1 | 3,4 | 13,9 | 90,7 | 13,70 | --- | 12,3 | --- | 7 |
| 21:00 | 286,0 | 8,7 | 3,4 | 13,8 | 90,9 | 13,33 | --- | 12,2 | --- | 7 |
| 21:10 | 273,6 | 8,1 | 3,7 | 13,7 | 91,2 | 13,38 | --- | 12,2 | --- | 7 |
| 21:20 | 286,7 | 6,0 | 3,1 | 13,6 | 91,1 | 13,61 | --- | 12,1 | --- | 7 |
| 21:30 | 284,5 | 6,1 | 2,6 | 13,6 | 91,7 | 13,63 | --- | 12,2 | --- | 7 |
| 21:40 | 282,2 | 6,4 | 2,8 | 13,8 | 92,0 | 13,74 | --- | 12,4 | --- | 7 |
| 21:50 | 287,1 | 6,9 | 3,1 | 13,7 | 92,0 | 13,57 | --- | 12,3 | --- | 7 |
| 22:00 | 283,3 | 7,0 | 2,6 | 13,7 | 92,3 | 13,51 | --- | 12,3 | --- | 7 |
| 22:10 | 275,0 | 6,2 | 2,3 | 13,5 | 92,2 | 13,40 | --- | 12,1 | --- | 7 |
| 22:20 | 278,6 | 7,0 | 2,8 | 13,5 | 92,7 | 13,34 | --- | 12,3 | --- | 7 |
| 22:30 | 288,1 | 8,1 | 3,7 | 13,8 | 93,0 | 13,44 | --- | 12,6 | --- | 7 |
| 22:40 | 286,6 | 8,3 | 4,1 | 13,9 | 93,1 | 13,55 | --- | 12,7 | --- | 7 |
| 22:50 | 292,2 | 8,1 | 4,4 | 14,0 | 93,3 | 13,68 | --- | 12,8 | --- | 7 |
| 23:00 | 289,5 | 7,5 | 3,5 | 14,0 | 93,4 | 13,79 | --- | 12,8 | --- | 7 |
| 23:10 | 289,1 | 6,6 | 3,3 | 14,0 | 93,4 | 13,92 | --- | 12,8 | --- | 7 |
| 23:20 | 288,4 | 8,0 | 3,5 | 13,9 | 93,5 | 13,58 | --- | 12,7 | --- | 7 |
| 23:30 | 285,6 | 8,8 | 4,0 | 13,8 | 93,7 | 13,39 | --- | 12,7 | --- | 7 |
| 23:40 | 282,8 | 9,3 | 4,4 | 13,8 | 93,8 | 13,23 | --- | 12,7 | --- | 7 |
| 23:50 | 282,7 | 9,4 | 4,2 | 13,8 | 93,8 | 13,21 | --- | 12,7 | --- | 7 |
| << 30.4. | 2.5. >> |